sensor_id;sensor_type;location;lat;lon;timestamp;temperature;humidity
20714;DHT22;10518;50.742;4.226;2023-11-25T00:02:12;6.50;99.90
20714;DHT22;10518;50.742;4.226;2023-11-25T00:04:37;6.30;99.90
20714;DHT22;10518;50.742;4.226;2023-11-25T00:07:04;6.20;99.90
20714;DHT22;10518;50.742;4.226;2023-11-25T00:09:29;6.10;99.90
20714;DHT22;10518;50.742;4.226;2023-11-25T00:11:55;6.00;99.90
20714;DHT22;10518;50.742;4.226;2023-11-25T00:14:20;6.00;99.90
20714;DHT22;10518;50.742;4.226;2023-11-25T00:16:46;6.10;99.90
20714;DHT22;10518;50.742;4.226;2023-11-25T00:19:12;6.00;99.90
20714;DHT22;10518;50.742;4.226;2023-11-25T00:21:37;6.10;99.90
20714;DHT22;10518;50.742;4.226;2023-11-25T00:24:03;6.10;99.90
20714;DHT22;10518;50.742;4.226;2023-11-25T00:26:28;6.20;99.90
20714;DHT22;10518;50.742;4.226;2023-11-25T00:28:54;6.40;99.90
20714;DHT22;10518;50.742;4.226;2023-11-25T00:31:19;6.40;99.90
20714;DHT22;10518;50.742;4.226;2023-11-25T00:33:45;6.60;99.90
20714;DHT22;10518;50.742;4.226;2023-11-25T00:36:11;6.80;99.90
20714;DHT22;10518;50.742;4.226;2023-11-25T00:38:37;6.90;99.90
20714;DHT22;10518;50.742;4.226;2023-11-25T00:41:03;6.70;99.90
20714;DHT22;10518;50.742;4.226;2023-11-25T00:43:31;6.50;99.90
20714;DHT22;10518;50.742;4.226;2023-11-25T00:45:57;6.30;99.90
20714;DHT22;10518;50.742;4.226;2023-11-25T00:48:23;6.20;99.90
20714;DHT22;10518;50.742;4.226;2023-11-25T00:50:49;6.30;99.90
20714;DHT22;10518;50.742;4.226;2023-11-25T00:53:15;6.30;99.90
20714;DHT22;10518;50.742;4.226;2023-11-25T00:55:41;6.40;99.90
20714;DHT22;10518;50.742;4.226;2023-11-25T00:58:07;6.40;99.90
20714;DHT22;10518;50.742;4.226;2023-11-25T01:00:32;6.40;99.90
20714;DHT22;10518;50.742;4.226;2023-11-25T01:02:58;6.60;99.90
20714;DHT22;10518;50.742;4.226;2023-11-25T01:05:24;6.90;99.90
20714;DHT22;10518;50.742;4.226;2023-11-25T01:07:50;6.80;99.90
20714;DHT22;10518;50.742;4.226;2023-11-25T01:10:16;6.80;99.90
20714;DHT22;10518;50.742;4.226;2023-11-25T01:12:42;6.70;99.90
20714;DHT22;10518;50.742;4.226;2023-11-25T01:15:08;6.70;99.90
20714;DHT22;10518;50.742;4.226;2023-11-25T01:17:37;6.80;99.90
20714;DHT22;10518;50.742;4.226;2023-11-25T01:20:02;6.80;99.90
20714;DHT22;10518;50.742;4.226;2023-11-25T01:22:29;6.70;99.90
20714;DHT22;10518;50.742;4.226;2023-11-25T01:24:55;6.90;99.90
20714;DHT22;10518;50.742;4.226;2023-11-25T01:27:21;6.70;99.90
20714;DHT22;10518;50.742;4.226;2023-11-25T01:29:49;6.40;99.90
20714;DHT22;10518;50.742;4.226;2023-11-25T01:32:14;6.20;99.90
20714;DHT22;10518;50.742;4.226;2023-11-25T01:34:40;6.50;99.90
20714;DHT22;10518;50.742;4.226;2023-11-25T01:37:05;6.40;99.90
20714;DHT22;10518;50.742;4.226;2023-11-25T01:39:32;6.30;99.90
20714;DHT22;10518;50.742;4.226;2023-11-25T01:41:59;6.20;99.90
20714;DHT22;10518;50.742;4.226;2023-11-25T01:44:25;6.20;99.90
20714;DHT22;10518;50.742;4.226;2023-11-25T01:46:51;6.20;99.90
20714;DHT22;10518;50.742;4.226;2023-11-25T01:49:19;6.00;99.90
20714;DHT22;10518;50.742;4.226;2023-11-25T01:51:46;5.90;99.90
20714;DHT22;10518;50.742;4.226;2023-11-25T01:54:16;5.90;99.90
20714;DHT22;10518;50.742;4.226;2023-11-25T01:56:45;5.70;99.90
20714;DHT22;10518;50.742;4.226;2023-11-25T01:59:13;5.70;99.90
20714;DHT22;10518;50.742;4.226;2023-11-25T02:01:41;5.70;99.90
20714;DHT22;10518;50.742;4.226;2023-11-25T02:04:09;5.70;99.90
20714;DHT22;10518;50.742;4.226;2023-11-25T02:06:34;5.80;99.90
20714;DHT22;10518;50.742;4.226;2023-11-25T02:09:00;5.90;99.90
20714;DHT22;10518;50.742;4.226;2023-11-25T02:11:26;5.90;99.90
20714;DHT22;10518;50.742;4.226;2023-11-25T02:13:52;5.90;99.90
20714;DHT22;10518;50.742;4.226;2023-11-25T02:16:18;5.90;99.90
20714;DHT22;10518;50.742;4.226;2023-11-25T02:18:45;6.00;99.90
20714;DHT22;10518;50.742;4.226;2023-11-25T02:21:11;6.00;99.90
20714;DHT22;10518;50.742;4.226;2023-11-25T02:23:36;5.90;99.90
20714;DHT22;10518;50.742;4.226;2023-11-25T02:26:02;5.90;99.90
20714;DHT22;10518;50.742;4.226;2023-11-25T02:28:28;5.90;99.90
20714;DHT22;10518;50.742;4.226;2023-11-25T02:30:54;5.80;99.90
20714;DHT22;10518;50.742;4.226;2023-11-25T02:33:20;5.80;99.90
20714;DHT22;10518;50.742;4.226;2023-11-25T02:35:48;5.90;99.90
20714;DHT22;10518;50.742;4.226;2023-11-25T02:38:16;5.90;99.90
20714;DHT22;10518;50.742;4.226;2023-11-25T02:40:45;6.00;99.90
20714;DHT22;10518;50.742;4.226;2023-11-25T02:43:11;6.20;99.90
20714;DHT22;10518;50.742;4.226;2023-11-25T02:45:38;6.10;99.90
20714;DHT22;10518;50.742;4.226;2023-11-25T02:48:05;6.20;99.90
20714;DHT22;10518;50.742;4.226;2023-11-25T02:50:31;6.20;99.90
20714;DHT22;10518;50.742;4.226;2023-11-25T02:52:58;6.20;99.90
20714;DHT22;10518;50.742;4.226;2023-11-25T02:55:24;6.10;99.90
20714;DHT22;10518;50.742;4.226;2023-11-25T02:57:50;6.10;99.90
20714;DHT22;10518;50.742;4.226;2023-11-25T03:00:17;6.00;99.90
20714;DHT22;10518;50.742;4.226;2023-11-25T03:02:49;5.90;99.90
20714;DHT22;10518;50.742;4.226;2023-11-25T03:05:18;5.90;99.90
20714;DHT22;10518;50.742;4.226;2023-11-25T03:07:44;5.90;99.90
20714;DHT22;10518;50.742;4.226;2023-11-25T03:10:10;5.80;99.90
20714;DHT22;10518;50.742;4.226;2023-11-25T03:12:36;5.80;99.90
20714;DHT22;10518;50.742;4.226;2023-11-25T03:15:02;5.80;99.90
20714;DHT22;10518;50.742;4.226;2023-11-25T03:17:28;5.80;99.90
20714;DHT22;10518;50.742;4.226;2023-11-25T03:19:54;5.80;99.90
20714;DHT22;10518;50.742;4.226;2023-11-25T03:22:20;5.90;99.90
20714;DHT22;10518;50.742;4.226;2023-11-25T03:24:45;5.90;99.90
20714;DHT22;10518;50.742;4.226;2023-11-25T03:27:11;6.00;99.90
20714;DHT22;10518;50.742;4.226;2023-11-25T03:29:38;6.00;99.90
20714;DHT22;10518;50.742;4.226;2023-11-25T03:32:04;6.00;99.90
20714;DHT22;10518;50.742;4.226;2023-11-25T03:34:31;5.90;99.90
20714;DHT22;10518;50.742;4.226;2023-11-25T03:36:56;6.00;99.90
20714;DHT22;10518;50.742;4.226;2023-11-25T03:39:22;6.00;99.90
20714;DHT22;10518;50.742;4.226;2023-11-25T03:41:47;6.10;99.90
20714;DHT22;10518;50.742;4.226;2023-11-25T03:44:13;6.20;99.90
20714;DHT22;10518;50.742;4.226;2023-11-25T03:46:42;6.30;99.90
20714;DHT22;10518;50.742;4.226;2023-11-25T03:49:07;6.50;99.90
20714;DHT22;10518;50.742;4.226;2023-11-25T03:51:33;6.60;99.90
20714;DHT22;10518;50.742;4.226;2023-11-25T03:53:58;6.80;99.90
20714;DHT22;10518;50.742;4.226;2023-11-25T03:56:24;6.60;99.90
20714;DHT22;10518;50.742;4.226;2023-11-25T03:58:51;6.50;99.90
20714;DHT22;10518;50.742;4.226;2023-11-25T04:01:16;6.60;99.90
20714;DHT22;10518;50.742;4.226;2023-11-25T04:03:42;6.50;99.90
20714;DHT22;10518;50.742;4.226;2023-11-25T04:06:07;6.40;99.90
20714;DHT22;10518;50.742;4.226;2023-11-25T04:08:33;6.30;99.90
20714;DHT22;10518;50.742;4.226;2023-11-25T04:10:59;6.30;99.90
20714;DHT22;10518;50.742;4.226;2023-11-25T04:13:25;6.10;99.90
20714;DHT22;10518;50.742;4.226;2023-11-25T04:15:50;6.10;99.90
20714;DHT22;10518;50.742;4.226;2023-11-25T04:18:16;6.10;99.90
20714;DHT22;10518;50.742;4.226;2023-11-25T04:20:41;6.20;99.90
20714;DHT22;10518;50.742;4.226;2023-11-25T04:23:08;6.30;99.90
20714;DHT22;10518;50.742;4.226;2023-11-25T04:25:33;6.40;99.90
20714;DHT22;10518;50.742;4.226;2023-11-25T04:28:00;6.50;99.90
20714;DHT22;10518;50.742;4.226;2023-11-25T04:30:25;6.50;99.90
20714;DHT22;10518;50.742;4.226;2023-11-25T04:32:51;6.60;99.90
20714;DHT22;10518;50.742;4.226;2023-11-25T04:35:17;6.80;99.90
20714;DHT22;10518;50.742;4.226;2023-11-25T04:37:44;6.70;99.90
20714;DHT22;10518;50.742;4.226;2023-11-25T04:40:13;6.50;99.90
20714;DHT22;10518;50.742;4.226;2023-11-25T04:42:42;6.60;99.90
20714;DHT22;10518;50.742;4.226;2023-11-25T04:45:09;6.50;99.90
20714;DHT22;10518;50.742;4.226;2023-11-25T04:47:42;6.50;99.90
20714;DHT22;10518;50.742;4.226;2023-11-25T04:50:09;6.40;99.90
20714;DHT22;10518;50.742;4.226;2023-11-25T04:52:36;6.30;99.90
20714;DHT22;10518;50.742;4.226;2023-11-25T04:55:02;6.20;99.90
20714;DHT22;10518;50.742;4.226;2023-11-25T04:57:28;6.30;99.90
20714;DHT22;10518;50.742;4.226;2023-11-25T04:59:54;6.40;99.90
20714;DHT22;10518;50.742;4.226;2023-11-25T05:02:19;6.40;99.90
20714;DHT22;10518;50.742;4.226;2023-11-25T05:04:46;6.30;99.90
20714;DHT22;10518;50.742;4.226;2023-11-25T05:07:11;6.20;99.90
20714;DHT22;10518;50.742;4.226;2023-11-25T05:09:37;6.10;99.90
20714;DHT22;10518;50.742;4.226;2023-11-25T05:12:04;6.00;99.90
20714;DHT22;10518;50.742;4.226;2023-11-25T05:14:31;5.90;99.90
20714;DHT22;10518;50.742;4.226;2023-11-25T05:16:57;5.80;99.90
20714;DHT22;10518;50.742;4.226;2023-11-25T05:19:23;5.80;99.90
20714;DHT22;10518;50.742;4.226;2023-11-25T05:21:48;5.90;99.90
20714;DHT22;10518;50.742;4.226;2023-11-25T05:24:14;5.90;99.90
20714;DHT22;10518;50.742;4.226;2023-11-25T05:26:40;6.00;99.90
20714;DHT22;10518;50.742;4.226;2023-11-25T05:29:06;6.00;99.90
20714;DHT22;10518;50.742;4.226;2023-11-25T05:31:32;6.20;99.90
20714;DHT22;10518;50.742;4.226;2023-11-25T05:34:02;6.20;99.90
20714;DHT22;10518;50.742;4.226;2023-11-25T05:36:31;6.10;99.90
20714;DHT22;10518;50.742;4.226;2023-11-25T05:39:00;6.20;99.90
20714;DHT22;10518;50.742;4.226;2023-11-25T05:41:27;6.40;99.90
20714;DHT22;10518;50.742;4.226;2023-11-25T05:43:55;6.30;99.90
20714;DHT22;10518;50.742;4.226;2023-11-25T05:46:23;6.40;99.90
20714;DHT22;10518;50.742;4.226;2023-11-25T05:48:52;6.40;99.90
20714;DHT22;10518;50.742;4.226;2023-11-25T05:51:17;6.50;99.90
20714;DHT22;10518;50.742;4.226;2023-11-25T05:53:44;6.60;99.90
20714;DHT22;10518;50.742;4.226;2023-11-25T05:56:09;6.60;99.90
20714;DHT22;10518;50.742;4.226;2023-11-25T05:58:35;6.60;99.90
20714;DHT22;10518;50.742;4.226;2023-11-25T06:01:00;6.60;99.90
20714;DHT22;10518;50.742;4.226;2023-11-25T06:03:28;6.50;99.90
20714;DHT22;10518;50.742;4.226;2023-11-25T06:05:53;6.60;99.90
20714;DHT22;10518;50.742;4.226;2023-11-25T06:08:19;6.60;99.90
20714;DHT22;10518;50.742;4.226;2023-11-25T06:10:46;6.40;99.90
20714;DHT22;10518;50.742;4.226;2023-11-25T06:13:14;6.40;99.90
20714;DHT22;10518;50.742;4.226;2023-11-25T06:15:41;6.60;99.90
20714;DHT22;10518;50.742;4.226;2023-11-25T06:18:07;6.60;99.90
20714;DHT22;10518;50.742;4.226;2023-11-25T06:20:38;6.50;99.90
20714;DHT22;10518;50.742;4.226;2023-11-25T06:23:04;6.60;99.90
20714;DHT22;10518;50.742;4.226;2023-11-25T06:25:30;6.70;99.90
20714;DHT22;10518;50.742;4.226;2023-11-25T06:27:55;6.50;99.90
20714;DHT22;10518;50.742;4.226;2023-11-25T06:30:21;6.30;99.90
20714;DHT22;10518;50.742;4.226;2023-11-25T06:32:50;6.30;99.90
20714;DHT22;10518;50.742;4.226;2023-11-25T06:35:15;6.30;99.90
20714;DHT22;10518;50.742;4.226;2023-11-25T06:37:41;6.20;99.90
20714;DHT22;10518;50.742;4.226;2023-11-25T06:40:07;6.20;99.90
20714;DHT22;10518;50.742;4.226;2023-11-25T06:42:33;6.00;99.90
20714;DHT22;10518;50.742;4.226;2023-11-25T06:44:59;6.00;99.90
20714;DHT22;10518;50.742;4.226;2023-11-25T06:47:27;6.00;99.90
20714;DHT22;10518;50.742;4.226;2023-11-25T06:49:52;5.90;99.90
20714;DHT22;10518;50.742;4.226;2023-11-25T06:52:18;6.10;99.90
20714;DHT22;10518;50.742;4.226;2023-11-25T06:54:43;6.20;99.90
20714;DHT22;10518;50.742;4.226;2023-11-25T06:57:09;6.20;99.90
20714;DHT22;10518;50.742;4.226;2023-11-25T06:59:35;6.00;99.90
20714;DHT22;10518;50.742;4.226;2023-11-25T07:02:00;5.80;99.90
20714;DHT22;10518;50.742;4.226;2023-11-25T07:04:26;5.80;99.90
20714;DHT22;10518;50.742;4.226;2023-11-25T07:06:52;5.80;99.90
20714;DHT22;10518;50.742;4.226;2023-11-25T07:09:17;6.00;99.90
20714;DHT22;10518;50.742;4.226;2023-11-25T07:11:45;6.10;99.90
20714;DHT22;10518;50.742;4.226;2023-11-25T07:14:14;6.50;99.90
20714;DHT22;10518;50.742;4.226;2023-11-25T07:16:39;6.50;99.90
20714;DHT22;10518;50.742;4.226;2023-11-25T07:19:05;6.50;99.90
20714;DHT22;10518;50.742;4.226;2023-11-25T07:21:33;6.40;99.90
20714;DHT22;10518;50.742;4.226;2023-11-25T07:23:59;6.50;99.90
20714;DHT22;10518;50.742;4.226;2023-11-25T07:26:25;6.60;99.90
20714;DHT22;10518;50.742;4.226;2023-11-25T07:28:51;6.60;99.90
20714;DHT22;10518;50.742;4.226;2023-11-25T07:31:17;6.70;99.90
20714;DHT22;10518;50.742;4.226;2023-11-25T07:33:43;6.50;99.90
20714;DHT22;10518;50.742;4.226;2023-11-25T07:36:09;6.50;99.90
20714;DHT22;10518;50.742;4.226;2023-11-25T07:38:34;6.50;99.90
20714;DHT22;10518;50.742;4.226;2023-11-25T07:41:00;6.50;99.90
20714;DHT22;10518;50.742;4.226;2023-11-25T07:43:25;6.50;99.90
20714;DHT22;10518;50.742;4.226;2023-11-25T07:45:51;6.60;99.90
20714;DHT22;10518;50.742;4.226;2023-11-25T07:48:17;6.80;99.90
20714;DHT22;10518;50.742;4.226;2023-11-25T07:50:43;6.80;99.90
20714;DHT22;10518;50.742;4.226;2023-11-25T07:53:14;7.00;99.90
20714;DHT22;10518;50.742;4.226;2023-11-25T07:55:40;7.00;99.90
20714;DHT22;10518;50.742;4.226;2023-11-25T07:58:07;7.10;99.90
20714;DHT22;10518;50.742;4.226;2023-11-25T08:00:32;7.00;99.90
20714;DHT22;10518;50.742;4.226;2023-11-25T08:02:58;6.80;99.90
20714;DHT22;10518;50.742;4.226;2023-11-25T08:05:24;6.70;99.90
20714;DHT22;10518;50.742;4.226;2023-11-25T08:07:51;7.10;99.90
20714;DHT22;10518;50.742;4.226;2023-11-25T08:10:17;7.00;99.90
20714;DHT22;10518;50.742;4.226;2023-11-25T08:12:44;7.00;99.90
20714;DHT22;10518;50.742;4.226;2023-11-25T08:15:10;7.30;99.90
20714;DHT22;10518;50.742;4.226;2023-11-25T08:17:36;7.40;99.90
20714;DHT22;10518;50.742;4.226;2023-11-25T08:20:02;7.40;99.90
20714;DHT22;10518;50.742;4.226;2023-11-25T08:22:28;7.40;99.90
20714;DHT22;10518;50.742;4.226;2023-11-25T08:24:54;7.30;99.90
20714;DHT22;10518;50.742;4.226;2023-11-25T08:27:22;7.40;99.90
20714;DHT22;10518;50.742;4.226;2023-11-25T08:29:48;7.30;99.90
20714;DHT22;10518;50.742;4.226;2023-11-25T08:32:14;7.30;99.90
20714;DHT22;10518;50.742;4.226;2023-11-25T08:34:39;7.30;99.90
20714;DHT22;10518;50.742;4.226;2023-11-25T08:37:05;7.40;99.90
20714;DHT22;10518;50.742;4.226;2023-11-25T08:39:32;7.30;99.90
20714;DHT22;10518;50.742;4.226;2023-11-25T08:41:58;7.30;99.90
20714;DHT22;10518;50.742;4.226;2023-11-25T08:44:25;7.30;99.90
20714;DHT22;10518;50.742;4.226;2023-11-25T08:46:51;7.30;99.90
20714;DHT22;10518;50.742;4.226;2023-11-25T08:49:19;7.40;99.90
20714;DHT22;10518;50.742;4.226;2023-11-25T08:51:47;7.50;99.90
20714;DHT22;10518;50.742;4.226;2023-11-25T08:54:16;7.50;99.90
20714;DHT22;10518;50.742;4.226;2023-11-25T08:56:44;7.40;99.90
20714;DHT22;10518;50.742;4.226;2023-11-25T08:59:11;7.30;99.90
20714;DHT22;10518;50.742;4.226;2023-11-25T09:01:38;7.40;99.90
20714;DHT22;10518;50.742;4.226;2023-11-25T09:04:05;7.40;99.90
20714;DHT22;10518;50.742;4.226;2023-11-25T09:06:35;7.40;99.90
20714;DHT22;10518;50.742;4.226;2023-11-25T09:09:05;7.60;99.90
20714;DHT22;10518;50.742;4.226;2023-11-25T09:11:33;7.50;99.90
20714;DHT22;10518;50.742;4.226;2023-11-25T09:13:59;7.70;99.90
20714;DHT22;10518;50.742;4.226;2023-11-25T09:16:25;7.60;99.90
20714;DHT22;10518;50.742;4.226;2023-11-25T09:18:51;7.60;99.90
20714;DHT22;10518;50.742;4.226;2023-11-25T09:21:18;7.70;99.90
20714;DHT22;10518;50.742;4.226;2023-11-25T09:23:44;7.60;99.90
20714;DHT22;10518;50.742;4.226;2023-11-25T09:26:09;7.80;99.90
20714;DHT22;10518;50.742;4.226;2023-11-25T09:28:35;7.80;99.90
20714;DHT22;10518;50.742;4.226;2023-11-25T09:31:00;7.70;99.90
20714;DHT22;10518;50.742;4.226;2023-11-25T09:33:26;7.80;99.90
20714;DHT22;10518;50.742;4.226;2023-11-25T09:35:52;7.90;99.90
20714;DHT22;10518;50.742;4.226;2023-11-25T09:38:18;7.90;99.90
20714;DHT22;10518;50.742;4.226;2023-11-25T09:40:43;7.70;99.90
20714;DHT22;10518;50.742;4.226;2023-11-25T09:43:10;7.60;99.90
20714;DHT22;10518;50.742;4.226;2023-11-25T09:45:37;7.70;99.90
20714;DHT22;10518;50.742;4.226;2023-11-25T09:48:03;7.70;99.90
20714;DHT22;10518;50.742;4.226;2023-11-25T09:50:28;7.70;99.90
20714;DHT22;10518;50.742;4.226;2023-11-25T09:52:57;7.80;99.90
20714;DHT22;10518;50.742;4.226;2023-11-25T09:55:24;7.90;99.90
20714;DHT22;10518;50.742;4.226;2023-11-25T09:57:55;8.10;99.90
20714;DHT22;10518;50.742;4.226;2023-11-25T10:00:25;8.10;99.90
20714;DHT22;10518;50.742;4.226;2023-11-25T10:02:53;8.00;99.90
20714;DHT22;10518;50.742;4.226;2023-11-25T10:05:20;8.00;99.90
20714;DHT22;10518;50.742;4.226;2023-11-25T10:07:46;7.90;99.90
20714;DHT22;10518;50.742;4.226;2023-11-25T10:10:12;7.80;99.90
20714;DHT22;10518;50.742;4.226;2023-11-25T10:12:42;7.90;99.90
20714;DHT22;10518;50.742;4.226;2023-11-25T10:15:08;7.90;99.90
20714;DHT22;10518;50.742;4.226;2023-11-25T10:17:36;7.90;99.90
20714;DHT22;10518;50.742;4.226;2023-11-25T10:20:08;7.80;99.90
20714;DHT22;10518;50.742;4.226;2023-11-25T10:22:54;7.80;99.90
20714;DHT22;10518;50.742;4.226;2023-11-25T10:25:25;7.80;99.90
20714;DHT22;10518;50.742;4.226;2023-11-25T10:27:52;7.80;99.90
20714;DHT22;10518;50.742;4.226;2023-11-25T10:30:20;7.90;99.90
20714;DHT22;10518;50.742;4.226;2023-11-25T10:32:46;8.00;99.90
20714;DHT22;10518;50.742;4.226;2023-11-25T10:35:14;8.10;99.90
20714;DHT22;10518;50.742;4.226;2023-11-25T10:37:40;8.20;99.90
20714;DHT22;10518;50.742;4.226;2023-11-25T10:40:10;8.10;99.90
20714;DHT22;10518;50.742;4.226;2023-11-25T10:42:40;7.90;99.90
20714;DHT22;10518;50.742;4.226;2023-11-25T10:45:16;7.60;99.90
20714;DHT22;10518;50.742;4.226;2023-11-25T10:47:42;7.30;99.90
20714;DHT22;10518;50.742;4.226;2023-11-25T10:50:08;7.10;99.90
20714;DHT22;10518;50.742;4.226;2023-11-25T10:52:34;7.00;99.90
20714;DHT22;10518;50.742;4.226;2023-11-25T10:55:04;6.90;99.90
20714;DHT22;10518;50.742;4.226;2023-11-25T10:57:32;7.00;99.90
20714;DHT22;10518;50.742;4.226;2023-11-25T10:59:59;7.10;99.90
20714;DHT22;10518;50.742;4.226;2023-11-25T11:02:28;7.10;99.90
20714;DHT22;10518;50.742;4.226;2023-11-25T11:04:59;7.20;99.90
20714;DHT22;10518;50.742;4.226;2023-11-25T11:07:28;7.20;99.90
20714;DHT22;10518;50.742;4.226;2023-11-25T11:09:58;7.20;99.90
20714;DHT22;10518;50.742;4.226;2023-11-25T11:12:37;7.10;99.90
20714;DHT22;10518;50.742;4.226;2023-11-25T11:15:05;7.20;99.90
20714;DHT22;10518;50.742;4.226;2023-11-25T11:20:05;7.20;99.90
20714;DHT22;10518;50.742;4.226;2023-11-25T11:22:35;7.10;99.90
20714;DHT22;10518;50.742;4.226;2023-11-25T11:25:15;7.10;99.90
20714;DHT22;10518;50.742;4.226;2023-11-25T11:28:09;7.10;99.90
20714;DHT22;10518;50.742;4.226;2023-11-25T11:33:39;7.50;99.90
20714;DHT22;10518;50.742;4.226;2023-11-25T11:36:05;7.70;99.90
20714;DHT22;10518;50.742;4.226;2023-11-25T11:38:31;7.80;99.90
20714;DHT22;10518;50.742;4.226;2023-11-25T11:44:05;7.90;99.90
20714;DHT22;10518;50.742;4.226;2023-11-25T11:46:32;8.10;99.90
20714;DHT22;10518;50.742;4.226;2023-11-25T11:49:01;8.10;99.90
20714;DHT22;10518;50.742;4.226;2023-11-25T11:51:28;8.10;99.90
20714;DHT22;10518;50.742;4.226;2023-11-25T11:54:26;8.30;99.90
20714;DHT22;10518;50.742;4.226;2023-11-25T11:57:03;8.20;99.90
20714;DHT22;10518;50.742;4.226;2023-11-25T12:00:01;8.30;99.90
20714;DHT22;10518;50.742;4.226;2023-11-25T12:02:36;8.30;99.90
20714;DHT22;10518;50.742;4.226;2023-11-25T12:05:06;8.30;99.90
20714;DHT22;10518;50.742;4.226;2023-11-25T12:07:32;8.10;99.90
20714;DHT22;10518;50.742;4.226;2023-11-25T12:09:58;7.90;99.90
20714;DHT22;10518;50.742;4.226;2023-11-25T12:12:24;7.90;99.90
20714;DHT22;10518;50.742;4.226;2023-11-25T12:14:50;7.90;99.90
20714;DHT22;10518;50.742;4.226;2023-11-25T12:17:16;7.90;99.90
20714;DHT22;10518;50.742;4.226;2023-11-25T12:19:42;7.80;99.90
20714;DHT22;10518;50.742;4.226;2023-11-25T12:22:12;7.80;99.90
20714;DHT22;10518;50.742;4.226;2023-11-25T12:24:40;7.80;99.90
20714;DHT22;10518;50.742;4.226;2023-11-25T12:27:06;7.90;99.90
20714;DHT22;10518;50.742;4.226;2023-11-25T12:29:34;8.00;99.90
20714;DHT22;10518;50.742;4.226;2023-11-25T12:32:00;8.00;99.90
20714;DHT22;10518;50.742;4.226;2023-11-25T12:34:25;8.10;99.90
20714;DHT22;10518;50.742;4.226;2023-11-25T12:36:51;8.20;99.90
20714;DHT22;10518;50.742;4.226;2023-11-25T12:39:17;8.40;99.90
20714;DHT22;10518;50.742;4.226;2023-11-25T12:41:43;8.60;99.90
20714;DHT22;10518;50.742;4.226;2023-11-25T12:44:09;8.70;99.90
20714;DHT22;10518;50.742;4.226;2023-11-25T12:46:39;8.70;99.90
20714;DHT22;10518;50.742;4.226;2023-11-25T12:49:21;8.70;99.90
20714;DHT22;10518;50.742;4.226;2023-11-25T12:51:48;8.70;99.90
20714;DHT22;10518;50.742;4.226;2023-11-25T12:54:15;8.70;99.90
20714;DHT22;10518;50.742;4.226;2023-11-25T12:57:03;8.60;99.90
20714;DHT22;10518;50.742;4.226;2023-11-25T12:59:28;8.70;99.90
20714;DHT22;10518;50.742;4.226;2023-11-25T13:02:09;8.70;99.90
20714;DHT22;10518;50.742;4.226;2023-11-25T13:04:35;8.70;99.90
20714;DHT22;10518;50.742;4.226;2023-11-25T13:07:07;8.70;99.90
20714;DHT22;10518;50.742;4.226;2023-11-25T13:09:33;8.60;99.90
20714;DHT22;10518;50.742;4.226;2023-11-25T13:12:03;8.50;99.90
20714;DHT22;10518;50.742;4.226;2023-11-25T13:14:29;8.50;99.90
20714;DHT22;10518;50.742;4.226;2023-11-25T13:16:55;8.50;99.90
20714;DHT22;10518;50.742;4.226;2023-11-25T13:19:21;8.50;99.90
20714;DHT22;10518;50.742;4.226;2023-11-25T13:21:48;8.50;99.90
20714;DHT22;10518;50.742;4.226;2023-11-25T13:24:13;8.40;99.90
20714;DHT22;10518;50.742;4.226;2023-11-25T13:26:39;8.50;99.90
20714;DHT22;10518;50.742;4.226;2023-11-25T13:29:05;8.70;99.90
20714;DHT22;10518;50.742;4.226;2023-11-25T13:31:30;8.80;99.90
20714;DHT22;10518;50.742;4.226;2023-11-25T13:33:56;8.90;99.90
20714;DHT22;10518;50.742;4.226;2023-11-25T13:36:21;9.00;99.90
20714;DHT22;10518;50.742;4.226;2023-11-25T13:38:48;9.00;99.90
20714;DHT22;10518;50.742;4.226;2023-11-25T13:41:14;9.10;99.90
20714;DHT22;10518;50.742;4.226;2023-11-25T13:43:39;9.10;99.90
20714;DHT22;10518;50.742;4.226;2023-11-25T13:46:05;9.00;99.90
20714;DHT22;10518;50.742;4.226;2023-11-25T13:48:31;8.80;99.90
20714;DHT22;10518;50.742;4.226;2023-11-25T13:50:57;8.70;99.90
20714;DHT22;10518;50.742;4.226;2023-11-25T13:53:22;8.60;99.90
20714;DHT22;10518;50.742;4.226;2023-11-25T13:55:48;8.60;99.90
20714;DHT22;10518;50.742;4.226;2023-11-25T13:58:14;8.60;99.90
20714;DHT22;10518;50.742;4.226;2023-11-25T14:00:42;8.60;99.90
20714;DHT22;10518;50.742;4.226;2023-11-25T14:03:08;8.50;99.90
20714;DHT22;10518;50.742;4.226;2023-11-25T14:05:38;8.60;99.90
20714;DHT22;10518;50.742;4.226;2023-11-25T14:08:07;8.60;99.90
20714;DHT22;10518;50.742;4.226;2023-11-25T14:10:34;8.60;99.90
20714;DHT22;10518;50.742;4.226;2023-11-25T14:13:00;8.50;99.90
20714;DHT22;10518;50.742;4.226;2023-11-25T14:15:26;8.50;99.90
20714;DHT22;10518;50.742;4.226;2023-11-25T14:17:51;8.40;99.90
20714;DHT22;10518;50.742;4.226;2023-11-25T14:20:17;8.50;99.90
20714;DHT22;10518;50.742;4.226;2023-11-25T14:22:46;8.50;99.90
20714;DHT22;10518;50.742;4.226;2023-11-25T14:25:17;8.50;99.90
20714;DHT22;10518;50.742;4.226;2023-11-25T14:27:44;8.40;99.90
20714;DHT22;10518;50.742;4.226;2023-11-25T14:30:12;8.40;99.90
20714;DHT22;10518;50.742;4.226;2023-11-25T14:32:39;8.40;99.90
20714;DHT22;10518;50.742;4.226;2023-11-25T14:35:05;8.50;99.90
20714;DHT22;10518;50.742;4.226;2023-11-25T14:37:32;8.40;99.90
20714;DHT22;10518;50.742;4.226;2023-11-25T14:39:58;8.40;99.90
20714;DHT22;10518;50.742;4.226;2023-11-25T14:42:23;8.30;99.90
20714;DHT22;10518;50.742;4.226;2023-11-25T14:44:52;8.20;99.90
20714;DHT22;10518;50.742;4.226;2023-11-25T14:47:21;8.30;99.90
20714;DHT22;10518;50.742;4.226;2023-11-25T14:49:48;8.20;99.90
20714;DHT22;10518;50.742;4.226;2023-11-25T14:52:14;8.20;99.90
20714;DHT22;10518;50.742;4.226;2023-11-25T14:54:40;8.20;99.90
20714;DHT22;10518;50.742;4.226;2023-11-25T14:57:07;8.00;99.90
20714;DHT22;10518;50.742;4.226;2023-11-25T14:59:33;8.00;99.90
20714;DHT22;10518;50.742;4.226;2023-11-25T15:02:00;8.00;99.90
20714;DHT22;10518;50.742;4.226;2023-11-25T15:04:26;8.00;99.90
20714;DHT22;10518;50.742;4.226;2023-11-25T15:06:51;7.90;99.90
20714;DHT22;10518;50.742;4.226;2023-11-25T15:09:17;7.80;99.90
20714;DHT22;10518;50.742;4.226;2023-11-25T15:11:43;7.70;99.90
20714;DHT22;10518;50.742;4.226;2023-11-25T15:14:09;7.80;99.90
20714;DHT22;10518;50.742;4.226;2023-11-25T15:16:36;7.80;99.90
20714;DHT22;10518;50.742;4.226;2023-11-25T15:19:02;7.80;99.90
20714;DHT22;10518;50.742;4.226;2023-11-25T15:21:27;7.90;99.90
20714;DHT22;10518;50.742;4.226;2023-11-25T15:23:53;7.80;99.90
20714;DHT22;10518;50.742;4.226;2023-11-25T15:26:19;7.80;99.90
20714;DHT22;10518;50.742;4.226;2023-11-25T15:28:45;8.00;99.90
20714;DHT22;10518;50.742;4.226;2023-11-25T15:31:12;7.80;99.90
20714;DHT22;10518;50.742;4.226;2023-11-25T15:33:39;7.80;99.90
20714;DHT22;10518;50.742;4.226;2023-11-25T15:36:11;7.80;99.90
20714;DHT22;10518;50.742;4.226;2023-11-25T15:38:37;7.80;99.90
20714;DHT22;10518;50.742;4.226;2023-11-25T15:41:04;7.70;99.90
20714;DHT22;10518;50.742;4.226;2023-11-25T15:43:32;7.60;99.90
20714;DHT22;10518;50.742;4.226;2023-11-25T15:45:59;7.60;99.90
20714;DHT22;10518;50.742;4.226;2023-11-25T15:48:25;7.70;99.90
20714;DHT22;10518;50.742;4.226;2023-11-25T15:50:51;7.70;99.90
20714;DHT22;10518;50.742;4.226;2023-11-25T15:53:17;7.70;99.90